Aviation Digital Data Service (ADDS)

Output produced by METARs form (1003 UTC 23 October 2014)
found at http://www.aviationweather.gov/adds/metars/
 
KSBY 230954Z 31013G20KT 10SM OVC029 13/08 A2979 RMK AO2 SLP088 T01280078
KSBY 230827Z 2308/2406 32012G20KT P6SM -RA BKN015 OVC025 
     FM231400 32017G25KT P6SM SCT025 BKN040 
     FM231800 31015G20KT P6SM SCT040 BKN060 
     FM232300 32009KT P6SM SKC